createdAt,value
2022-12-13T02:00:25.969Z,95.06
2022-12-13T02:01:25.983Z,94.32
2022-12-13T02:02:25.942Z,93.68
2022-12-13T02:03:25.910Z,93.51
2022-12-13T02:04:25.936Z,93.62
2022-12-13T02:05:25.926Z,93.82
2022-12-13T02:06:25.881Z,94.25
2022-12-13T02:07:25.908Z,94.89
2022-12-13T02:08:25.936Z,95.00
2022-12-13T02:09:25.844Z,95.10
2022-12-13T02:10:25.836Z,95.00
2022-12-13T02:11:25.884Z,95.10
2022-12-13T02:12:29.582Z,95.04
2022-12-13T02:13:28.838Z,94.61
2022-12-13T02:14:25.815Z,94.82
2022-12-13T02:15:25.944Z,95.57
2022-12-13T02:16:25.842Z,95.89
2022-12-13T02:17:25.801Z,96.21
2022-12-13T02:18:25.775Z,96.53
2022-12-13T02:19:25.791Z,96.42
2022-12-13T02:20:25.778Z,96.21
2022-12-13T02:21:25.738Z,96.00
2022-12-13T02:22:25.726Z,95.89
2022-12-13T02:23:25.747Z,95.89
2022-12-13T02:24:25.735Z,95.57
2022-12-13T02:25:28.584Z,95.57
2022-12-13T02:26:25.727Z,95.78
2022-12-13T02:27:30.342Z,96.00
2022-12-13T02:28:31.312Z,96.42
2022-12-13T02:29:30.685Z,96.85
2022-12-13T02:30:25.644Z,97.70
2022-12-13T02:31:25.756Z,98.30
2022-12-13T02:32:25.668Z,98.72
2022-12-13T02:33:25.647Z,98.83
2022-12-13T02:34:25.645Z,98.72
2022-12-13T02:35:25.628Z,98.78
2022-12-13T02:36:25.623Z,98.46
2022-12-13T02:37:26.615Z,98.14
2022-12-13T02:38:25.597Z,97.40
2022-12-13T02:39:30.209Z,97.08
2022-12-13T02:40:25.567Z,96.66
2022-12-13T02:41:25.565Z,95.85
2022-12-13T02:42:25.568Z,95.42
2022-12-13T02:43:33.767Z,95.53
2022-12-13T02:44:25.538Z,95.74
2022-12-13T02:45:25.823Z,96.06
2022-12-13T02:46:25.543Z,96.48
2022-12-13T02:47:25.515Z,96.48
2022-12-13T02:48:25.509Z,96.48
2022-12-13T02:49:25.504Z,96.59
2022-12-13T02:50:25.497Z,96.91
2022-12-13T02:51:25.488Z,96.97
2022-12-13T02:52:25.474Z,97.50
2022-12-13T02:53:25.448Z,96.97
2022-12-13T02:54:25.427Z,96.66
2022-12-13T02:55:28.300Z,96.55
2022-12-13T02:56:25.448Z,96.66
2022-12-13T02:57:25.408Z,97.08
2022-12-13T02:58:28.419Z,97.08
2022-12-13T02:59:25.430Z,96.97
2022-12-13T03:00:25.555Z,96.12
2022-12-13T03:01:27.894Z,95.81
2022-12-13T03:02:31.745Z,95.74
2022-12-13T03:03:25.410Z,95.64
2022-12-13T03:04:26.734Z,95.32
2022-12-13T03:05:25.315Z,95.53
2022-12-13T03:06:25.307Z,96.38
2022-12-13T03:07:25.306Z,97.50
2022-12-13T03:08:25.322Z,98.36
2022-12-13T03:09:25.288Z,98.78
2022-12-13T03:10:25.285Z,98.99
2022-12-13T03:11:25.425Z,99.05
2022-12-13T03:12:25.279Z,99.16
2022-12-13T03:13:29.165Z,99.27
2022-12-13T03:14:29.409Z,99.38
2022-12-13T03:15:25.256Z,99.22
2022-12-13T03:16:25.288Z,99.01
2022-12-13T03:17:25.238Z,99.01
2022-12-13T03:18:25.228Z,98.80
2022-12-13T03:19:25.207Z,98.59
2022-12-13T03:20:25.187Z,98.27
2022-12-13T03:21:25.176Z,98.16
2022-12-13T03:22:25.171Z,98.16
2022-12-13T03:23:25.177Z,98.05
2022-12-13T03:24:25.206Z,97.85
2022-12-13T03:25:31.630Z,96.78
2022-12-13T03:26:25.132Z,96.19
2022-12-13T03:27:25.150Z,95.55
2022-12-13T03:28:28.113Z,95.34
2022-12-13T03:29:25.210Z,95.97
2022-12-13T03:30:25.097Z,96.40
2022-12-13T03:31:25.170Z,96.83
2022-12-13T03:32:25.079Z,97.14
2022-12-13T03:33:25.061Z,97.14
2022-12-13T03:34:25.058Z,97.36
2022-12-13T03:35:34.996Z,97.36
2022-12-13T03:36:26.065Z,97.25
2022-12-13T03:37:25.183Z,97.61
2022-12-13T03:38:25.015Z,97.67
2022-12-13T03:39:25.025Z,97.89
2022-12-13T03:40:25.042Z,98.10
2022-12-13T03:41:25.027Z,98.32
2022-12-13T03:42:25.171Z,98.42
2022-12-13T03:43:27.997Z,98.42
2022-12-13T03:44:24.988Z,98.38
2022-12-13T03:45:24.961Z,98.38
2022-12-13T03:46:25.015Z,98.27
2022-12-13T03:47:24.967Z,98.05
2022-12-13T03:48:24.936Z,98.27
2022-12-13T03:49:24.934Z,98.27
2022-12-13T03:50:27.468Z,98.27
2022-12-13T03:51:24.919Z,98.05
2022-12-13T03:52:24.881Z,98.05
2022-12-13T03:53:33.852Z,97.74
2022-12-13T03:54:24.888Z,97.42
2022-12-13T03:55:24.889Z,96.78
2022-12-13T03:56:24.878Z,96.04
2022-12-13T03:57:24.871Z,95.44
2022-12-13T03:58:35.236Z,95.55
2022-12-13T03:59:24.834Z,95.55
2022-12-13T04:00:24.864Z,95.87
2022-12-13T04:01:24.866Z,96.19
2022-12-13T04:02:31.125Z,96.50
2022-12-13T04:03:24.853Z,96.72
2022-12-13T04:04:24.779Z,96.83
2022-12-13T04:05:24.925Z,97.14
2022-12-13T04:06:29.817Z,97.46
2022-12-13T04:07:24.771Z,97.78
2022-12-13T04:08:24.842Z,97.99
2022-12-13T04:09:24.778Z,98.10
2022-12-13T04:10:25.370Z,98.16
2022-12-13T04:11:24.746Z,98.16
2022-12-13T04:12:24.718Z,98.05
2022-12-13T04:13:27.717Z,97.95
2022-12-13T04:14:24.700Z,97.52
2022-12-13T04:15:24.700Z,96.99
2022-12-13T04:16:24.748Z,96.67
2022-12-13T04:17:24.674Z,96.78
2022-12-13T04:18:24.640Z,97.10
2022-12-13T04:19:24.662Z,97.42
2022-12-13T04:20:24.631Z,97.63
2022-12-13T04:21:24.608Z,97.63
2022-12-13T04:22:25.050Z,97.52
2022-12-13T04:23:24.650Z,97.31
2022-12-13T04:24:31.409Z,97.06
2022-12-13T04:25:24.579Z,97.10
2022-12-13T04:26:24.605Z,97.06
2022-12-13T04:27:24.580Z,97.06
2022-12-13T04:28:27.540Z,97.06
2022-12-13T04:29:24.582Z,96.73
2022-12-13T04:30:24.564Z,96.63
2022-12-13T04:31:24.575Z,96.53
2022-12-13T04:32:26.855Z,96.63
2022-12-13T04:33:24.535Z,96.73
2022-12-13T04:34:26.388Z,96.73
2022-12-13T04:35:25.509Z,96.46
2022-12-13T04:36:31.013Z,95.72
2022-12-13T04:37:24.462Z,95.40
2022-12-13T04:38:24.459Z,94.70
2022-12-13T04:39:24.482Z,94.06
2022-12-13T04:40:24.437Z,93.89
2022-12-13T04:41:24.434Z,93.89
2022-12-13T04:42:24.450Z,94.42
2022-12-13T04:43:27.592Z,94.78
2022-12-13T04:44:28.923Z,95.00
2022-12-13T04:45:24.452Z,95.32
2022-12-13T04:46:24.434Z,95.21
2022-12-13T04:47:24.405Z,95.21
2022-12-13T04:48:30.293Z,95.42
2022-12-13T04:49:24.381Z,95.53
2022-12-13T04:50:24.343Z,95.64
2022-12-13T04:51:24.364Z,95.53
2022-12-13T04:52:24.322Z,95.53
2022-12-13T04:53:24.311Z,95.53
2022-12-13T04:54:24.807Z,95.64
2022-12-13T04:55:25.326Z,95.78
2022-12-13T04:56:24.291Z,96.11
2022-12-13T04:57:24.309Z,96.42
2022-12-13T04:58:27.263Z,96.48
2022-12-13T04:59:24.306Z,96.59
2022-12-13T05:00:24.363Z,96.59
2022-12-13T05:01:24.321Z,96.59
2022-12-13T05:02:24.482Z,96.48
2022-12-13T05:03:24.243Z,96.59
2022-12-13T05:04:28.953Z,96.59
2022-12-13T05:05:24.208Z,97.02
2022-12-13T05:06:27.600Z,97.23
2022-12-13T05:07:24.194Z,97.55
2022-12-13T05:08:24.191Z,97.72
2022-12-13T05:09:24.184Z,97.93
2022-12-13T05:10:36.170Z,98.14
2022-12-13T05:11:24.173Z,98.10
2022-12-13T05:12:25.133Z,97.89
2022-12-13T05:13:27.151Z,97.89
2022-12-13T05:14:24.164Z,97.78
2022-12-13T05:15:24.112Z,97.57
2022-12-13T05:16:24.822Z,97.25
2022-12-13T05:17:24.108Z,96.83
2022-12-13T05:18:24.075Z,96.61
2022-12-13T05:19:30.683Z,96.40
2022-12-13T05:20:24.064Z,95.87
2022-12-13T05:21:24.045Z,95.48
2022-12-13T05:22:24.067Z,95.44
2022-12-13T05:23:24.050Z,95.59
2022-12-13T05:24:24.086Z,95.59
2022-12-13T05:25:24.041Z,95.70
2022-12-13T05:26:24.025Z,96.12
2022-12-13T05:27:26.786Z,96.55
2022-12-13T05:28:28.818Z,96.87
2022-12-13T05:29:24.023Z,97.04
2022-12-13T05:30:23.961Z,97.14
2022-12-13T05:31:24.226Z,97.36
2022-12-13T05:32:24.001Z,97.46
2022-12-13T05:33:23.963Z,97.36
2022-12-13T05:34:23.959Z,97.14
2022-12-13T05:35:24.094Z,96.93
2022-12-13T05:36:23.958Z,97.04
2022-12-13T05:37:23.904Z,97.25
2022-12-13T05:38:23.936Z,97.25
2022-12-13T05:39:29.382Z,97.10
2022-12-13T05:40:23.874Z,96.99
2022-12-13T05:41:23.921Z,96.99
2022-12-13T05:42:23.854Z,96.89
2022-12-13T05:43:43.156Z,96.57
2022-12-13T05:44:24.881Z,96.46
2022-12-13T05:45:23.851Z,96.46
2022-12-13T05:46:23.946Z,96.57
2022-12-13T05:47:23.834Z,96.57
2022-12-13T05:48:24.302Z,96.67
2022-12-13T05:49:23.781Z,96.78
2022-12-13T05:50:23.784Z,96.89
2022-12-13T05:51:23.800Z,96.78
2022-12-13T05:52:30.317Z,96.78
2022-12-13T05:53:30.762Z,96.67
2022-12-13T05:54:23.766Z,96.67
2022-12-13T05:55:23.753Z,96.67
2022-12-13T05:56:23.759Z,96.57
2022-12-13T05:57:23.746Z,96.46
2022-12-13T05:58:26.704Z,96.31
2022-12-13T05:59:23.741Z,96.36
2022-12-13T06:00:29.617Z,96.14
2022-12-13T06:01:23.707Z,96.25
2022-12-13T06:02:23.827Z,96.25
2022-12-13T06:03:23.745Z,96.57
2022-12-13T06:04:23.795Z,96.78
2022-12-13T06:05:23.679Z,96.78
2022-12-13T06:06:23.623Z,96.67
2022-12-13T06:07:23.645Z,96.57
2022-12-13T06:08:24.511Z,96.46
2022-12-13T06:09:23.624Z,96.46
2022-12-13T06:10:23.592Z,96.53
2022-12-13T06:11:31.817Z,96.42
2022-12-13T06:12:31.821Z,96.31
2022-12-13T06:13:32.203Z,96.20
2022-12-13T06:14:24.596Z,96.31
2022-12-13T06:15:23.814Z,96.36
2022-12-13T06:16:24.604Z,96.31
2022-12-13T06:17:23.529Z,96.46
2022-12-13T06:18:23.552Z,96.53
2022-12-13T06:19:23.511Z,96.42
2022-12-13T06:20:24.773Z,96.31
2022-12-13T06:21:23.568Z,96.31
2022-12-13T06:22:24.592Z,96.42
2022-12-13T06:23:23.493Z,96.31
2022-12-13T06:24:23.492Z,96.20
2022-12-13T06:25:31.473Z,96.20
2022-12-13T06:26:23.441Z,96.10
2022-12-13T06:27:23.458Z,96.20
2022-12-13T06:28:26.427Z,96.31
2022-12-13T06:29:25.570Z,96.42
2022-12-13T06:30:23.428Z,96.42
2022-12-13T06:31:23.402Z,96.42
2022-12-13T06:32:23.391Z,96.53
2022-12-13T06:33:23.822Z,96.53
2022-12-13T06:34:23.405Z,96.53
2022-12-13T06:35:29.465Z,96.42
2022-12-13T06:36:23.374Z,96.42
2022-12-13T06:37:23.345Z,96.31
2022-12-13T06:38:31.879Z,96.31
2022-12-13T06:39:23.342Z,96.20
2022-12-13T06:40:23.511Z,96.10
2022-12-13T06:41:27.620Z,96.10
2022-12-13T06:42:23.323Z,96.20
2022-12-13T06:43:26.276Z,96.31
2022-12-13T06:44:23.262Z,96.31
2022-12-13T06:45:23.285Z,96.20
2022-12-13T06:46:23.309Z,96.31
2022-12-13T06:47:31.355Z,96.53
2022-12-13T06:48:23.215Z,96.53
2022-12-13T06:49:23.197Z,96.53
2022-12-13T06:50:23.193Z,96.53
2022-12-13T06:51:23.327Z,96.37
2022-12-13T06:52:23.727Z,96.37
2022-12-13T06:53:23.148Z,96.37
2022-12-13T06:54:23.146Z,96.48
2022-12-13T06:55:23.505Z,96.37
2022-12-13T06:56:23.132Z,96.27
2022-12-13T06:57:23.129Z,96.27
2022-12-13T06:58:26.114Z,96.48
2022-12-13T06:59:23.126Z,96.48
2022-12-13T07:00:25.057Z,96.48
2022-12-13T07:01:23.969Z,96.27
2022-12-13T07:02:25.606Z,96.27
2022-12-13T07:03:23.092Z,96.27
2022-12-13T07:04:29.628Z,96.27
2022-12-13T07:05:23.037Z,96.16
2022-12-13T07:06:23.020Z,96.06
2022-12-13T07:07:23.015Z,95.95
2022-12-13T07:08:23.124Z,95.84
2022-12-13T07:09:23.033Z,95.74
2022-12-13T07:10:23.198Z,95.63
2022-12-13T07:11:22.999Z,95.74
2022-12-13T07:12:22.956Z,95.84
2022-12-13T07:13:25.998Z,95.84
2022-12-13T07:14:22.980Z,95.95
2022-12-13T07:15:22.923Z,96.06
2022-12-13T07:16:22.993Z,95.95
2022-12-13T07:17:32.565Z,95.95
2022-12-13T07:18:22.924Z,95.95
2022-12-13T07:19:24.731Z,95.80
2022-12-13T07:20:23.874Z,95.74
2022-12-13T07:21:22.893Z,95.59
2022-12-13T07:22:22.888Z,95.53
2022-12-13T07:23:24.467Z,95.38
2022-12-13T07:24:22.892Z,95.38
2022-12-13T07:25:27.759Z,95.59
2022-12-13T07:26:22.818Z,95.80
2022-12-13T07:27:22.847Z,95.80
2022-12-13T07:28:25.830Z,95.59
2022-12-13T07:29:23.046Z,95.38
2022-12-13T07:30:22.787Z,95.27
2022-12-13T07:31:22.877Z,94.85
2022-12-13T07:32:22.800Z,94.64
2022-12-13T07:33:22.929Z,94.85
2022-12-13T07:34:22.798Z,95.06
2022-12-13T07:35:22.777Z,95.27
2022-12-13T07:36:22.756Z,95.70
2022-12-13T07:37:30.641Z,95.59
2022-12-13T07:38:22.739Z,95.48
2022-12-13T07:39:22.716Z,95.44
2022-12-13T07:40:22.700Z,95.34
2022-12-13T07:41:23.425Z,95.34
2022-12-13T07:42:22.673Z,95.23
2022-12-13T07:43:25.689Z,95.02
2022-12-13T07:44:22.660Z,94.91
2022-12-13T07:45:22.727Z,95.12
2022-12-13T07:46:32.049Z,95.23
2022-12-13T07:47:22.625Z,95.23
2022-12-13T07:48:22.690Z,95.23
2022-12-13T07:49:22.611Z,95.18
2022-12-13T07:50:24.049Z,95.18
2022-12-13T07:51:23.612Z,95.18
2022-12-13T07:52:22.576Z,95.18
2022-12-13T07:53:22.593Z,95.18
2022-12-13T07:54:22.586Z,95.29
2022-12-13T07:55:23.105Z,94.87
2022-12-13T07:56:22.547Z,94.87
2022-12-13T07:57:22.534Z,94.98
2022-12-13T07:58:25.546Z,94.93
2022-12-13T07:59:28.424Z,94.82
2022-12-13T08:00:22.508Z,94.72
2022-12-13T08:01:22.589Z,94.72
2022-12-13T08:02:22.496Z,94.61
2022-12-13T08:03:25.152Z,94.61
2022-12-13T08:04:22.505Z,94.61
2022-12-13T08:05:26.622Z,94.82
2022-12-13T08:06:23.500Z,94.61
2022-12-13T08:07:22.439Z,94.51
2022-12-13T08:08:22.467Z,94.57
2022-12-13T08:09:22.432Z,94.46
2022-12-13T08:10:22.409Z,94.36
2022-12-13T08:11:22.420Z,94.15
2022-12-13T08:12:22.935Z,94.04
2022-12-13T08:13:25.401Z,94.04
2022-12-13T08:14:22.429Z,93.83
2022-12-13T08:15:22.387Z,93.51
2022-12-13T08:16:28.282Z,93.51
2022-12-13T08:17:22.370Z,93.62
2022-12-13T08:18:22.356Z,93.83
2022-12-13T08:19:22.350Z,93.93
2022-12-13T08:20:22.603Z,93.68
2022-12-13T08:21:52.344Z,93.51
2022-12-13T08:22:24.033Z,93.47
2022-12-13T08:23:22.956Z,93.57
2022-12-13T08:24:22.792Z,93.79
2022-12-13T08:25:22.288Z,93.89
2022-12-13T08:26:22.263Z,93.79
2022-12-13T08:27:22.280Z,93.37
2022-12-13T08:28:25.234Z,93.37
2022-12-13T08:29:34.371Z,93.32
2022-12-13T08:30:22.763Z,92.90
2022-12-13T08:31:22.266Z,92.79
2022-12-13T08:32:22.200Z,92.79
2022-12-13T08:33:22.597Z,92.58
2022-12-13T08:34:22.181Z,92.37
2022-12-13T08:35:22.231Z,92.37
2022-12-13T08:36:23.182Z,92.05
2022-12-13T08:37:22.209Z,92.05
2022-12-13T08:38:22.921Z,92.05
2022-12-13T08:39:22.130Z,92.37
2022-12-13T08:40:22.157Z,92.47
2022-12-13T08:41:22.164Z,92.47
2022-12-13T08:42:22.134Z,92.37
2022-12-13T08:43:25.430Z,92.22
2022-12-13T08:44:22.137Z,92.22
2022-12-13T08:45:22.107Z,92.22
2022-12-13T08:46:22.151Z,91.69
2022-12-13T08:47:23.461Z,91.59
2022-12-13T08:48:22.685Z,91.69
2022-12-13T08:49:22.116Z,92.01
2022-12-13T08:50:22.059Z,92.01
2022-12-13T08:51:25.704Z,91.91
2022-12-13T08:52:22.017Z,91.91
2022-12-13T08:53:28.226Z,92.07
2022-12-13T08:54:31.566Z,91.86
2022-12-13T08:55:32.002Z,91.44
2022-12-13T08:56:21.968Z,91.44
2022-12-13T08:57:21.963Z,91.23
2022-12-13T08:58:24.963Z,91.02
2022-12-13T08:59:21.981Z,90.91
2022-12-13T09:00:21.969Z,90.49
2022-12-13T09:01:21.945Z,90.59
2022-12-13T09:02:22.088Z,90.70
2022-12-13T09:03:22.330Z,90.87
2022-12-13T09:04:31.144Z,90.55
2022-12-13T09:05:33.237Z,90.45
2022-12-13T09:06:21.877Z,90.23
2022-12-13T09:07:21.970Z,90.45
2022-12-13T09:08:23.914Z,90.55
2022-12-13T09:09:21.876Z,90.45
2022-12-13T09:10:26.882Z,90.34
2022-12-13T09:11:36.399Z,89.98
2022-12-13T09:12:30.383Z,90.20
2022-12-13T09:13:31.111Z,90.52
2022-12-13T09:14:23.500Z,90.41
2022-12-13T09:15:23.199Z,89.61
2022-12-13T09:16:23.787Z,89.07
2022-12-13T09:17:24.456Z,89.71
2022-12-13T09:18:23.887Z,89.92
2022-12-13T09:19:26.274Z,90.03
2022-12-13T09:20:29.092Z,89.92
2022-12-13T09:21:31.009Z,90.03
2022-12-13T09:22:32.804Z,90.41
2022-12-13T09:23:23.867Z,90.41
2022-12-13T09:24:23.960Z,89.88
2022-12-13T09:25:23.945Z,89.46
2022-12-13T09:26:25.243Z,89.14
2022-12-13T09:27:27.646Z,89.35
2022-12-13T09:28:25.693Z,89.56
2022-12-13T09:29:21.707Z,89.88
2022-12-13T09:30:21.670Z,89.94
2022-12-13T09:31:21.786Z,89.84
2022-12-13T09:32:21.637Z,89.42
2022-12-13T09:33:29.920Z,89.25
2022-12-13T09:34:21.676Z,89.52
2022-12-13T09:35:21.601Z,89.31
2022-12-13T09:36:21.602Z,89.67
2022-12-13T09:37:23.121Z,89.63
2022-12-13T09:38:21.592Z,89.52
2022-12-13T09:39:21.705Z,89.31
2022-12-13T09:40:25.934Z,89.31
2022-12-13T09:41:28.959Z,89.42
2022-12-13T09:42:21.536Z,89.42
2022-12-13T09:43:31.730Z,89.52
2022-12-13T09:44:33.047Z,89.42
2022-12-13T09:45:31.721Z,89.73
2022-12-13T09:46:22.941Z,89.94
2022-12-13T09:47:22.952Z,89.73
2022-12-13T09:48:23.164Z,89.10
2022-12-13T09:49:23.304Z,88.89
2022-12-13T09:50:24.950Z,89.20
2022-12-13T09:51:28.594Z,89.42
2022-12-13T09:52:22.672Z,89.31
2022-12-13T09:53:22.487Z,89.20
2022-12-13T09:54:22.460Z,89.10
2022-12-13T09:55:21.404Z,89.20
2022-12-13T09:56:21.429Z,89.31
2022-12-13T09:57:32.333Z,89.20
2022-12-13T09:58:24.839Z,89.63
2022-12-13T09:59:21.400Z,89.79
2022-12-13T10:00:21.351Z,89.59
2022-12-13T10:01:22.534Z,89.27
2022-12-13T10:02:21.371Z,89.17
2022-12-13T10:03:21.733Z,89.37
2022-12-13T10:04:21.328Z,89.17
2022-12-13T10:05:25.311Z,88.85
2022-12-13T10:06:23.423Z,88.85
2022-12-13T10:07:21.301Z,88.95
2022-12-13T10:08:21.301Z,88.32
2022-12-13T10:09:21.382Z,88.28
2022-12-13T10:10:21.331Z,88.81
2022-12-13T10:11:21.231Z,89.34
2022-12-13T10:12:21.233Z,89.51
2022-12-13T10:13:24.590Z,89.29
2022-12-13T10:14:21.222Z,88.66
2022-12-13T10:15:22.525Z,88.03
2022-12-13T10:16:23.877Z,87.99
2022-12-13T10:17:22.190Z,87.88
2022-12-13T10:18:21.176Z,87.99
2022-12-13T10:19:29.098Z,87.78
2022-12-13T10:20:21.182Z,87.36
2022-12-13T10:21:21.175Z,87.15
2022-12-13T10:22:21.149Z,86.72
2022-12-13T10:23:38.660Z,87.04
2022-12-13T10:24:27.673Z,87.04
2022-12-13T10:25:21.149Z,86.83
2022-12-13T10:26:24.145Z,87.46
2022-12-13T10:27:21.129Z,87.15
2022-12-13T10:28:24.118Z,87.50
2022-12-13T10:29:21.130Z,87.99
2022-12-13T10:30:27.726Z,87.99
2022-12-13T10:31:21.135Z,87.99
2022-12-13T10:32:21.066Z,88.41
2022-12-13T10:33:24.675Z,87.88
2022-12-13T10:34:21.056Z,87.46
2022-12-13T10:35:21.026Z,87.15
2022-12-13T10:36:25.048Z,87.15
2022-12-13T10:37:21.036Z,87.25
2022-12-13T10:38:21.009Z,87.11
2022-12-13T10:39:21.986Z,87.21
2022-12-13T10:40:32.818Z,86.90
2022-12-13T10:41:20.988Z,86.90
2022-12-13T10:42:22.496Z,86.54
2022-12-13T10:43:24.414Z,86.54
2022-12-13T10:44:21.234Z,86.22
2022-12-13T10:45:23.076Z,85.97
2022-12-13T10:46:25.117Z,85.70
2022-12-13T10:47:21.978Z,85.70
2022-12-13T10:48:21.092Z,85.70
2022-12-13T10:49:20.890Z,85.80
2022-12-13T10:50:20.870Z,85.17
2022-12-13T10:51:20.857Z,85.38
2022-12-13T10:52:30.767Z,85.66
2022-12-13T10:53:22.899Z,85.87
2022-12-13T10:54:20.839Z,85.97
2022-12-13T10:55:23.108Z,85.60
2022-12-13T10:56:22.877Z,86.02
2022-12-13T10:57:20.811Z,86.44
2022-12-13T10:58:23.820Z,86.54
2022-12-13T10:59:20.846Z,86.33
2022-12-13T11:00:20.867Z,85.91
2022-12-13T11:01:20.851Z,86.02
2022-12-13T11:02:20.823Z,86.22
2022-12-13T11:03:20.792Z,86.65
2022-12-13T11:04:26.891Z,86.86
2022-12-13T11:05:23.300Z,86.86
2022-12-13T11:06:20.749Z,85.80
2022-12-13T11:07:20.716Z,85.70
2022-12-13T11:08:20.732Z,85.70
2022-12-13T11:09:23.450Z,85.60
2022-12-13T11:10:26.647Z,85.53
2022-12-13T11:11:20.696Z,85.95
2022-12-13T11:12:20.690Z,86.58
2022-12-13T11:13:24.013Z,87.42
2022-12-13T11:14:20.679Z,87.42
2022-12-13T11:15:23.340Z,87.32
2022-12-13T11:16:20.705Z,87.18
2022-12-13T11:17:20.637Z,86.86
2022-12-13T11:18:20.636Z,86.05
2022-12-13T11:19:20.677Z,86.33
2022-12-13T11:20:20.621Z,86.69
2022-12-13T11:21:20.589Z,86.37
2022-12-13T11:22:20.629Z,86.76
2022-12-13T11:23:20.549Z,86.79
2022-12-13T11:24:22.969Z,86.16
2022-12-13T11:25:20.562Z,86.69
2022-12-13T11:26:24.512Z,86.90
2022-12-13T11:27:20.538Z,87.07
2022-12-13T11:28:26.813Z,87.18
2022-12-13T11:29:20.542Z,86.86
2022-12-13T11:30:20.523Z,87.07
2022-12-13T11:31:20.595Z,86.96
2022-12-13T11:32:22.699Z,86.33
2022-12-13T11:33:20.488Z,86.22
2022-12-13T11:34:20.444Z,86.02
2022-12-13T11:35:20.533Z,86.22
2022-12-13T11:36:20.437Z,85.70
2022-12-13T11:37:20.442Z,85.91
2022-12-13T11:38:20.454Z,85.87
2022-12-13T11:39:20.427Z,85.97
2022-12-13T11:40:20.390Z,86.19
2022-12-13T11:41:32.279Z,86.29
2022-12-13T11:42:20.400Z,85.87
2022-12-13T11:43:23.381Z,85.70
2022-12-13T11:44:20.361Z,85.91
2022-12-13T11:45:22.791Z,86.12
2022-12-13T11:46:20.385Z,86.76
2022-12-13T11:47:20.324Z,86.76
2022-12-13T11:48:20.345Z,86.02
2022-12-13T11:49:20.329Z,86.33
2022-12-13T11:50:33.127Z,86.51
2022-12-13T11:51:20.302Z,86.40
2022-12-13T11:52:20.272Z,86.08
2022-12-13T11:53:20.266Z,85.66
2022-12-13T11:54:23.901Z,85.55
2022-12-13T11:55:20.239Z,85.77
2022-12-13T11:56:20.236Z,85.52
2022-12-13T11:57:20.253Z,85.52
2022-12-13T11:58:54.063Z,85.62
2022-12-13T11:59:26.565Z,85.52
2022-12-13T12:00:34.044Z,85.20
2022-12-13T12:01:20.193Z,85.41
2022-12-13T12:02:20.298Z,85.62
2022-12-13T12:03:20.270Z,85.31
2022-12-13T12:04:20.152Z,85.62
2022-12-13T12:05:20.184Z,85.45
2022-12-13T12:06:20.136Z,85.13
2022-12-13T12:07:35.438Z,85.55
2022-12-13T12:08:31.108Z,86.04
2022-12-13T12:09:20.100Z,86.08
2022-12-13T12:10:20.134Z,85.77
2022-12-13T12:11:20.113Z,85.87
2022-12-13T12:12:22.223Z,85.83
2022-12-13T12:13:23.065Z,86.19
2022-12-13T12:14:20.097Z,86.68
2022-12-13T12:15:26.635Z,86.19
2022-12-13T12:16:20.119Z,85.87
2022-12-13T12:17:20.024Z,86.08
2022-12-13T12:18:20.015Z,86.40
2022-12-13T12:19:20.087Z,86.40
2022-12-13T12:20:23.766Z,86.46
2022-12-13T12:21:19.986Z,86.19
2022-12-13T12:22:20.975Z,86.08
2022-12-13T12:23:19.965Z,86.02
2022-12-13T12:24:19.949Z,86.65
2022-12-13T12:25:19.947Z,87.07
2022-12-13T12:26:19.955Z,87.38
2022-12-13T12:27:22.619Z,87.81
2022-12-13T12:28:23.342Z,88.02
2022-12-13T12:29:19.953Z,87.60
2022-12-13T12:30:23.402Z,87.07
2022-12-13T12:31:19.983Z,86.54
2022-12-13T12:32:19.875Z,86.86
2022-12-13T12:33:19.894Z,87.18
2022-12-13T12:34:28.168Z,87.60
2022-12-13T12:35:19.848Z,87.91
2022-12-13T12:36:19.858Z,87.38
2022-12-13T12:37:19.878Z,87.60
2022-12-13T12:38:19.854Z,87.38
2022-12-13T12:39:19.841Z,87.49
2022-12-13T12:40:19.828Z,87.49
2022-12-13T12:41:19.795Z,87.49
2022-12-13T12:42:20.739Z,87.60
2022-12-13T12:43:22.834Z,87.81
2022-12-13T12:44:19.767Z,87.11
2022-12-13T12:45:54.464Z,87.42
2022-12-13T12:46:20.823Z,88.16
2022-12-13T12:47:46.724Z,88.06
2022-12-13T12:49:20.827Z,88.44
2022-12-13T12:50:19.697Z,88.44
2022-12-13T12:51:19.700Z,88.33
2022-12-13T12:52:19.707Z,88.54
2022-12-13T12:53:19.697Z,88.54
2022-12-13T12:54:19.657Z,88.02
2022-12-13T12:55:20.682Z,87.91
2022-12-13T12:56:19.664Z,87.81
2022-12-13T12:57:19.658Z,87.60
2022-12-13T12:58:22.934Z,87.38
2022-12-13T12:59:19.632Z,87.49
2022-12-13T13:00:19.769Z,87.91
2022-12-13T13:01:19.664Z,87.60
2022-12-13T13:02:19.706Z,87.91
2022-12-13T13:03:22.853Z,87.81
2022-12-13T13:04:22.858Z,87.60
2022-12-13T13:05:19.556Z,87.28
2022-12-13T13:06:19.536Z,87.38
2022-12-13T13:07:22.987Z,87.81
2022-12-13T13:08:19.528Z,88.02
2022-12-13T13:09:24.514Z,88.12
2022-12-13T13:10:29.278Z,88.08
2022-12-13T13:11:25.023Z,87.66
2022-12-13T13:12:29.438Z,87.24
2022-12-13T13:13:32.717Z,87.45
2022-12-13T13:14:19.893Z,87.24
2022-12-13T13:15:19.490Z,87.03
2022-12-13T13:16:19.539Z,87.18
2022-12-13T13:17:19.438Z,87.35
2022-12-13T13:18:19.427Z,87.13
2022-12-13T13:19:25.812Z,86.82
2022-12-13T13:20:19.497Z,86.08
2022-12-13T13:21:19.428Z,86.22
2022-12-13T13:22:31.111Z,86.86
2022-12-13T13:23:39.543Z,87.38
2022-12-13T13:24:20.372Z,87.81
2022-12-13T13:25:19.398Z,87.91
2022-12-13T13:26:31.440Z,87.98
2022-12-13T13:27:20.360Z,87.98
2022-12-13T13:28:22.332Z,88.08
2022-12-13T13:29:27.007Z,88.08
2022-12-13T13:30:19.310Z,87.87
2022-12-13T13:31:19.390Z,87.55
2022-12-13T13:32:29.168Z,87.87
2022-12-13T13:33:19.310Z,87.45
2022-12-13T13:34:19.279Z,87.35
2022-12-13T13:35:19.265Z,87.24
2022-12-13T13:36:29.298Z,87.13
2022-12-13T13:37:22.560Z,87.24
2022-12-13T13:38:19.238Z,87.35
2022-12-13T13:39:19.412Z,87.35
2022-12-13T13:40:30.119Z,87.24
2022-12-13T13:41:19.201Z,87.55
2022-12-13T13:42:19.222Z,87.24
2022-12-13T13:43:24.930Z,87.13
2022-12-13T13:44:19.690Z,87.66
2022-12-13T13:45:19.177Z,87.87
2022-12-13T13:46:19.219Z,87.76
2022-12-13T13:47:19.164Z,87.76
2022-12-13T13:48:19.203Z,87.98
2022-12-13T13:49:19.143Z,88.18
2022-12-13T13:50:19.111Z,88.50
2022-12-13T13:51:19.132Z,88.29
2022-12-13T13:52:26.997Z,88.29
2022-12-13T13:53:20.406Z,88.29
2022-12-13T13:54:19.108Z,88.60
2022-12-13T13:55:19.074Z,88.50
2022-12-13T13:56:19.085Z,88.50
2022-12-13T13:57:22.284Z,88.40
2022-12-13T13:58:23.031Z,88.29
2022-12-13T13:59:19.072Z,88.18
2022-12-13T14:00:19.042Z,88.40
2022-12-13T14:01:19.053Z,88.65
2022-12-13T14:02:19.047Z,88.23
2022-12-13T14:03:29.244Z,88.12
2022-12-13T14:04:19.002Z,88.44
2022-12-13T14:05:18.970Z,88.44
2022-12-13T14:06:18.984Z,88.96
2022-12-13T14:07:25.029Z,89.28
2022-12-13T14:08:20.342Z,89.17
2022-12-13T14:09:18.925Z,89.07
2022-12-13T14:10:18.924Z,89.17
2022-12-13T14:11:19.044Z,88.33
2022-12-13T14:12:18.925Z,88.90
2022-12-13T14:13:22.074Z,89.11
2022-12-13T14:14:21.766Z,89.53
2022-12-13T14:15:18.894Z,89.53
2022-12-13T14:16:21.109Z,89.32
2022-12-13T14:17:18.854Z,89.64
2022-12-13T14:18:21.729Z,89.74
2022-12-13T14:19:18.861Z,89.42
2022-12-13T14:20:18.870Z,89.78
2022-12-13T14:21:18.822Z,89.78
2022-12-13T14:22:18.835Z,90.10
2022-12-13T14:23:21.505Z,90.31
2022-12-13T14:24:18.806Z,90.41
2022-12-13T14:25:18.764Z,90.80
2022-12-13T14:26:18.812Z,90.69
2022-12-13T14:27:18.781Z,90.58
2022-12-13T14:28:21.770Z,90.37
2022-12-13T14:29:18.771Z,90.37
2022-12-13T14:30:28.201Z,90.26
2022-12-13T14:31:22.142Z,90.37
2022-12-13T14:32:26.961Z,89.84
2022-12-13T14:33:18.716Z,89.89
2022-12-13T14:34:18.683Z,90.31
2022-12-13T14:35:25.809Z,90.52
2022-12-13T14:36:18.671Z,90.83
2022-12-13T14:37:18.727Z,91.26
2022-12-13T14:38:18.665Z,91.47
2022-12-13T14:39:25.067Z,91.26
2022-12-13T14:40:18.623Z,91.68
2022-12-13T14:41:18.620Z,91.89
2022-12-13T14:42:18.630Z,91.89
2022-12-13T14:43:24.280Z,91.99
2022-12-13T14:44:18.628Z,91.99
2022-12-13T14:45:18.607Z,92.31
2022-12-13T14:46:18.624Z,92.41
2022-12-13T14:47:18.589Z,92.21
2022-12-13T14:48:28.706Z,92.41
2022-12-13T14:49:18.575Z,91.99
2022-12-13T14:50:18.526Z,91.99
2022-12-13T14:51:18.515Z,92.21
2022-12-13T14:52:25.919Z,92.63
2022-12-13T14:53:18.495Z,92.94